Time;durP1;ratioP1;P1;durP2;ratioP2;P2;SDS_P1;SDS_P2;PMS_P1;PMS_P2;Temp;Humidity;BMP_temperature;BMP_pressure;BME280_temperature;BME280_humidity;BME280_pressure;Samples;Min_cycle;Max_cycle;Signal;HPM_P1;HPM_P2
2021/07/01 00:02:11;;;;;;;4.97;4.57;;;14.80;97.40;;;;;;5049041;28;20474;-80
2021/07/01 00:04:39;;;;;;;4.60;4.30;;;14.80;98.40;;;;;;5046468;28;20464;-80
2021/07/01 00:07:06;;;;;;;4.73;4.43;;;14.80;98.90;;;;;;5047872;28;20499;-79
2021/07/01 00:09:33;;;;;;;5.07;4.27;;;14.70;99.60;;;;;;5050716;28;20464;-78
2021/07/01 00:12:00;;;;;;;5.20;4.90;;;14.70;99.00;;;;;;5054151;28;20464;-78
2021/07/01 00:14:27;;;;;;;5.13;4.83;;;14.80;98.50;;;;;;5038772;28;20463;-78
2021/07/01 00:16:56;;;;;;;5.00;4.57;;;14.70;99.50;;;;;;5053938;28;20470;-79
2021/07/01 00:19:23;;;;;;;4.93;4.60;;;14.70;99.90;;;;;;5047021;28;20475;-78
2021/07/01 00:21:51;;;;;;;6.27;5.87;;;14.70;99.60;;;;;;5051531;28;20560;-80
2021/07/01 00:24:18;;;;;;;5.80;5.40;;;14.70;99.90;;;;;;5047837;28;20450;-79
2021/07/01 00:26:45;;;;;;;6.83;6.40;;;14.60;99.90;;;;;;5054433;28;20460;-79
2021/07/01 00:29:12;;;;;;;7.50;6.77;;;14.60;99.90;;;;;;5051127;28;20472;-78
2021/07/01 00:31:40;;;;;;;7.10;6.60;;;14.60;99.50;;;;;;5044167;28;20464;-78
2021/07/01 00:34:08;;;;;;;6.00;5.60;;;14.60;99.80;;;;;;5045879;28;20446;-79
2021/07/01 00:36:35;;;;;;;7.13;6.70;;;14.70;98.40;;;;;;5047015;28;20458;-79
2021/07/01 00:39:02;;;;;;;6.30;5.87;;;14.70;99.70;;;;;;5055137;28;20814;-79
2021/07/01 00:41:29;;;;;;;6.43;5.93;;;14.70;98.60;;;;;;5048762;28;20449;-78
2021/07/01 00:43:56;;;;;;;6.73;6.23;;;14.60;98.20;;;;;;5052698;28;20453;-81
2021/07/01 00:46:23;;;;;;;7.10;6.37;;;14.50;98.30;;;;;;5045230;28;20469;-79
2021/07/01 00:48:50;;;;;;;7.50;6.90;;;14.60;98.40;;;;;;5050111;28;20460;-78
2021/07/01 00:51:18;;;;;;;6.47;5.93;;;14.60;98.40;;;;;;5052894;28;20460;-78
2021/07/01 00:53:45;;;;;;;6.53;6.03;;;14.60;99.20;;;;;;5055496;28;20513;-78
2021/07/01 00:56:14;;;;;;;7.13;6.30;;;14.60;98.10;;;;;;5055048;28;20564;-78
2021/07/01 00:58:41;;;;;;;5.87;5.47;;;14.70;97.10;;;;;;5048378;28;20461;-79
2021/07/01 01:01:08;;;;;;;6.93;6.50;;;14.70;97.40;;;;;;5051565;28;20455;-82
2021/07/01 01:03:37;;;;;;;6.40;5.90;;;14.70;98.30;;;;;;5059918;28;20484;-80
2021/07/01 01:06:04;;;;;;;6.50;6.10;;;14.70;98.60;;;;;;5047707;28;20535;-79
2021/07/01 01:08:33;;;;;;;6.03;5.63;;;14.80;96.10;;;;;;5054138;28;20440;-78
2021/07/01 01:11:00;;;;;;;6.10;5.70;;;14.80;96.80;;;;;;5057444;28;20515;-80
2021/07/01 01:13:27;;;;;;;7.03;6.43;;;14.80;97.40;;;;;;5056311;28;20450;-79
2021/07/01 01:15:56;;;;;;;6.40;5.87;;;14.70;97.40;;;;;;5051347;28;20886;-80
2021/07/01 01:18:23;;;;;;;6.77;6.37;;;14.70;97.90;;;;;;5051609;28;20454;-81
2021/07/01 01:20:51;;;;;;;6.40;5.90;;;14.70;97.70;;;;;;5052423;28;20864;-78
2021/07/01 01:23:20;;;;;;;6.10;5.60;;;14.60;97.90;;;;;;5051258;28;20465;-78
2021/07/01 01:25:48;;;;;;;7.00;6.40;;;14.70;97.90;;;;;;5057753;28;20441;-79
2021/07/01 01:28:16;;;;;;;7.47;6.80;;;14.70;97.10;;;;;;5050271;28;21010;-80
2021/07/01 01:30:43;;;;;;;7.07;6.47;;;14.70;96.50;;;;;;5056807;28;20548;-78
2021/07/01 01:33:11;;;;;;;7.93;7.43;;;14.60;97.90;;;;;;5056045;28;20445;-79
2021/07/01 01:35:40;;;;;;;6.93;6.20;;;14.60;97.60;;;;;;5051925;28;20478;-78
2021/07/01 01:38:09;;;;;;;7.17;6.67;;;14.70;97.40;;;;;;5046357;28;20459;-78
2021/07/01 01:40:37;;;;;;;7.90;6.90;;;14.60;96.50;;;;;;5028828;28;20454;-78
2021/07/01 01:43:05;;;;;;;7.53;6.93;;;14.60;96.80;;;;;;5039353;28;20562;-78
2021/07/01 01:45:32;;;;;;;7.03;6.53;;;14.60;97.80;;;;;;5053662;28;20483;-79
2021/07/01 01:47:59;;;;;;;7.47;6.90;;;14.60;97.70;;;;;;5054829;28;20449;-78
2021/07/01 01:50:26;;;;;;;7.53;7.00;;;14.70;97.20;;;;;;5055784;28;20995;-78
2021/07/01 01:52:53;;;;;;;8.03;7.33;;;14.60;95.30;;;;;;5054457;28;21813;-78
2021/07/01 01:55:20;;;;;;;7.43;6.83;;;14.60;96.00;;;;;;5051224;28;20462;-77
2021/07/01 01:57:50;;;;;;;7.93;7.30;;;14.60;96.70;;;;;;5057549;28;21337;-79
2021/07/01 02:00:19;;;;;;;7.27;6.67;;;14.50;97.40;;;;;;5054550;28;20490;-78
2021/07/01 02:02:46;;;;;;;7.83;7.33;;;14.60;96.40;;;;;;5061936;28;20535;-77
2021/07/01 02:05:14;;;;;;;7.63;7.13;;;14.40;96.80;;;;;;5052089;28;20484;-77
2021/07/01 02:07:41;;;;;;;9.63;8.00;;;14.50;97.50;;;;;;5060359;28;20998;-77
2021/07/01 02:10:10;;;;;;;7.53;7.03;;;14.50;97.20;;;;;;5052882;28;20565;-79
2021/07/01 02:12:38;;;;;;;7.10;6.50;;;14.50;97.00;;;;;;5063300;28;20472;-80
2021/07/01 02:15:08;;;;;;;7.83;7.20;;;14.40;98.80;;;;;;5056703;28;20450;-78
2021/07/01 02:17:35;;;;;;;7.93;7.43;;;14.40;99.40;;;;;;5058644;28;20497;-78
2021/07/01 02:20:03;;;;;;;9.20;8.30;;;14.30;99.90;;;;;;5055857;28;21132;-79
2021/07/01 02:22:30;;;;;;;8.07;7.50;;;14.20;99.90;;;;;;5052281;28;20501;-78
2021/07/01 02:24:56;;;;;;;10.23;8.37;;;14.10;99.90;;;;;;5050003;28;20587;-79
2021/07/01 02:27:23;;;;;;;8.57;7.10;;;14.10;99.90;;;;;;5052856;28;20499;-79
2021/07/01 02:29:50;;;;;;;7.07;6.53;;;14.00;99.90;;;;;;5051855;28;20581;-79
2021/07/01 02:32:19;;;;;;;7.67;7.10;;;13.90;99.90;;;;;;5048212;28;20441;-77
2021/07/01 02:34:45;;;;;;;7.20;6.70;;;13.90;99.90;;;;;;5053197;28;20532;-78
2021/07/01 02:37:13;;;;;;;7.20;6.60;;;13.90;99.90;;;;;;5053056;28;20457;-78
2021/07/01 02:39:40;;;;;;;7.33;6.60;;;13.90;99.90;;;;;;5051177;28;21455;-79
2021/07/01 02:42:08;;;;;;;5.70;5.20;;;14.00;99.90;;;;;;5052583;28;20613;-79
2021/07/01 02:44:35;;;;;;;6.17;5.73;;;13.90;99.90;;;;;;5051398;28;20485;-80
2021/07/01 02:47:02;;;;;;;6.20;5.70;;;13.80;99.90;;;;;;5059018;28;20456;-78
2021/07/01 02:49:30;;;;;;;5.60;5.10;;;13.80;99.90;;;;;;5063894;28;20464;-79
2021/07/01 02:51:57;;;;;;;5.03;4.70;;;13.90;99.90;;;;;;5051304;28;20443;-78
2021/07/01 02:54:24;;;;;;;5.70;5.20;;;13.90;99.90;;;;;;5057538;28;20539;-78
2021/07/01 02:56:51;;;;;;;4.83;4.53;;;13.90;99.90;;;;;;5050178;28;20535;-79
2021/07/01 02:59:19;;;;;;;4.37;4.07;;;13.90;99.90;;;;;;5047493;28;20552;-78
2021/07/01 03:01:47;;;;;;;4.27;3.97;;;13.90;99.90;;;;;;5049666;28;20487;-77
2021/07/01 03:04:14;;;;;;;3.97;3.77;;;13.90;99.90;;;;;;5054208;28;20473;-78
2021/07/01 03:06:45;;;;;;;4.37;4.07;;;13.90;99.90;;;;;;5054326;28;20659;-79
2021/07/01 03:09:12;;;;;;;4.40;4.10;;;13.80;99.90;;;;;;5054125;28;20476;-78
2021/07/01 03:11:40;;;;;;;6.60;4.00;;;13.90;99.90;;;;;;5052098;28;21074;-79
2021/07/01 03:14:07;;;;;;;4.17;3.87;;;13.80;99.90;;;;;;5059152;28;20459;-79
2021/07/01 03:16:35;;;;;;;3.47;3.27;;;13.80;99.90;;;;;;5054070;28;20547;-79
2021/07/01 03:19:02;;;;;;;3.63;3.33;;;13.80;99.90;;;;;;5055719;28;20460;-79
2021/07/01 03:21:29;;;;;;;4.00;3.70;;;13.60;99.90;;;;;;5047987;28;20462;-78
2021/07/01 03:23:57;;;;;;;3.63;3.40;;;13.70;99.90;;;;;;5059599;28;21129;-78
2021/07/01 03:26:24;;;;;;;3.03;2.83;;;13.70;99.90;;;;;;5057240;28;20449;-77
2021/07/01 03:28:51;;;;;;;2.93;2.73;;;13.60;99.90;;;;;;5053255;28;20480;-77
2021/07/01 03:31:18;;;;;;;3.60;3.30;;;13.60;99.90;;;;;;5061127;28;20455;-77
2021/07/01 03:33:45;;;;;;;3.13;2.93;;;13.60;99.90;;;;;;5050774;28;20557;-77
2021/07/01 03:36:11;;;;;;;3.60;3.40;;;13.50;99.90;;;;;;5049143;28;20487;-77
2021/07/01 03:38:38;;;;;;;5.93;3.07;;;13.60;99.90;;;;;;5048079;28;20905;-78
2021/07/01 03:41:07;;;;;;;3.03;2.80;;;13.60;99.90;;;;;;5051578;28;20639;-77
2021/07/01 03:43:39;;;;;;;3.27;2.97;;;13.70;99.90;;;;;;5049240;28;20575;-78
2021/07/01 03:46:07;;;;;;;3.00;2.80;;;13.70;99.90;;;;;;5050596;28;20545;-76
2021/07/01 03:48:34;;;;;;;2.50;2.40;;;13.70;99.90;;;;;;5047494;28;20485;-77
2021/07/01 03:51:01;;;;;;;2.83;2.63;;;13.80;99.90;;;;;;5046534;28;20452;-77
2021/07/01 03:53:28;;;;;;;2.57;2.40;;;13.90;99.90;;;;;;5048354;28;20449;-77
2021/07/01 03:55:54;;;;;;;2.90;2.63;;;13.90;99.90;;;;;;5050443;28;20460;-77
2021/07/01 03:58:23;;;;;;;2.00;1.83;;;13.90;99.90;;;;;;5046591;28;20464;-77
2021/07/01 04:00:49;;;;;;;2.30;2.20;;;13.90;99.90;;;;;;5055558;28;20541;-77
2021/07/01 04:03:16;;;;;;;2.00;1.90;;;14.00;99.90;;;;;;5047929;28;20534;-77
2021/07/01 04:05:43;;;;;;;1.90;1.80;;;14.00;99.90;;;;;;5048874;28;20563;-76
2021/07/01 04:08:10;;;;;;;2.10;1.80;;;14.00;99.90;;;;;;5050799;28;20544;-75
2021/07/01 04:10:37;;;;;;;2.07;1.87;;;14.00;99.90;;;;;;5055154;28;20524;-77
2021/07/01 04:13:04;;;;;;;2.03;1.93;;;14.10;99.90;;;;;;5048872;28;20518;-77
2021/07/01 04:15:32;;;;;;;2.70;1.77;;;14.20;99.90;;;;;;5047609;28;20500;-77
2021/07/01 04:17:59;;;;;;;2.07;1.83;;;14.20;99.90;;;;;;5053820;28;20531;-77
2021/07/01 04:20:26;;;;;;;1.10;1.10;;;14.30;99.90;;;;;;5052581;28;20988;-77
2021/07/01 04:22:53;;;;;;;1.47;1.23;;;14.30;99.90;;;;;;5054854;28;20476;-77
2021/07/01 04:25:20;;;;;;;1.70;1.20;;;14.30;99.90;;;;;;5045945;28;20511;-77
2021/07/01 04:27:47;;;;;;;1.47;1.30;;;14.40;99.90;;;;;;5063063;28;20510;-77
2021/07/01 04:30:15;;;;;;;1.80;1.60;;;14.40;99.90;;;;;;5049439;28;20530;-77
2021/07/01 04:32:43;;;;;;;2.03;1.60;;;14.40;99.90;;;;;;5055624;28;20468;-77
2021/07/01 04:35:10;;;;;;;1.50;1.40;;;14.40;99.90;;;;;;5046622;28;20822;-77
2021/07/01 04:37:37;;;;;;;1.40;1.30;;;14.30;99.90;;;;;;5057416;28;20510;-78
2021/07/01 04:40:07;;;;;;;2.10;1.30;;;14.30;99.90;;;;;;5052988;28;20461;-76
2021/07/01 04:42:34;;;;;;;1.70;1.37;;;14.20;99.90;;;;;;5064193;28;20458;-78
2021/07/01 04:45:04;;;;;;;1.47;1.17;;;14.20;99.90;;;;;;5063066;28;20512;-76
2021/07/01 04:47:30;;;;;;;1.87;1.77;;;14.20;99.90;;;;;;5058714;28;20542;-76
2021/07/01 04:49:59;;;;;;;3.67;1.53;;;14.10;99.90;;;;;;5050146;28;20465;-76
2021/07/01 04:52:27;;;;;;;2.00;1.90;;;14.00;99.90;;;;;;5049955;28;20544;-76
2021/07/01 04:54:54;;;;;;;1.50;1.40;;;14.00;99.90;;;;;;5049424;28;20466;-77
2021/07/01 04:57:21;;;;;;;2.67;1.97;;;14.00;99.90;;;;;;5054095;28;21048;-77
2021/07/01 04:59:48;;;;;;;1.20;1.10;;;14.00;99.90;;;;;;5047823;28;20446;-79
2021/07/01 05:02:15;;;;;;;3.40;1.50;;;14.00;99.90;;;;;;5048175;28;20449;-75
2021/07/01 05:04:42;;;;;;;1.70;1.10;;;14.00;99.90;;;;;;5051740;28;20606;-77
2021/07/01 05:07:10;;;;;;;1.60;1.50;;;13.90;99.90;;;;;;5049707;28;20948;-77
2021/07/01 05:09:38;;;;;;;1.97;1.50;;;13.90;99.90;;;;;;5056573;28;20523;-77
2021/07/01 05:12:05;;;;;;;4.80;2.23;;;13.90;99.90;;;;;;5051217;28;20454;-78
2021/07/01 05:14:32;;;;;;;1.30;1.20;;;13.90;99.90;;;;;;5050842;28;20923;-76
2021/07/01 05:16:59;;;;;;;2.30;1.33;;;13.90;99.90;;;;;;5048189;28;20480;-77
2021/07/01 05:19:26;;;;;;;1.63;1.53;;;13.90;99.90;;;;;;5053728;28;20456;-79
2021/07/01 05:21:53;;;;;;;1.57;1.47;;;13.90;99.90;;;;;;5047988;28;20461;-77
2021/07/01 05:24:21;;;;;;;2.03;1.63;;;14.00;99.90;;;;;;5046863;28;20508;-78
2021/07/01 05:26:48;;;;;;;1.93;1.83;;;14.00;99.90;;;;;;5047895;28;20461;-77
2021/07/01 05:29:15;;;;;;;2.13;1.93;;;13.90;99.90;;;;;;5052582;28;20445;-77
2021/07/01 05:31:42;;;;;;;1.63;1.53;;;14.00;99.90;;;;;;5055106;28;20471;-78
2021/07/01 05:34:09;;;;;;;1.10;1.00;;;14.20;99.90;;;;;;5056894;28;20459;-77
2021/07/01 05:36:36;;;;;;;1.70;1.60;;;14.20;99.90;;;;;;5046730;28;21290;-77
2021/07/01 05:39:03;;;;;;;1.80;1.70;;;14.20;99.90;;;;;;5048095;28;20461;-78
2021/07/01 05:41:32;;;;;;;1.20;1.20;;;14.40;99.90;;;;;;5039100;28;20894;-82
2021/07/01 05:44:01;;;;;;;1.30;1.23;;;14.60;99.90;;;;;;5032144;28;20469;-81
2021/07/01 05:46:28;;;;;;;1.97;1.50;;;14.60;99.90;;;;;;5057935;28;20459;-80
2021/07/01 05:48:55;;;;;;;2.70;1.40;;;14.70;99.90;;;;;;5060845;28;20456;-80
2021/07/01 05:51:23;;;;;;;1.90;1.80;;;14.80;99.90;;;;;;5047932;28;20514;-80
2021/07/01 05:53:57;;;;;;;1.20;1.20;;;14.80;99.90;;;;;;5055529;28;20456;-79
2021/07/01 05:56:26;;;;;;;4.30;2.10;;;15.00;99.00;;;;;;5056966;28;20859;-79
2021/07/01 05:58:54;;;;;;;2.63;1.23;;;15.30;98.80;;;;;;5049769;28;20977;-79
2021/07/01 06:01:21;;;;;;;2.07;1.80;;;15.30;96.60;;;;;;5061727;28;20460;-81
2021/07/01 06:03:48;;;;;;;3.00;1.20;;;15.40;94.70;;;;;;5072424;28;20476;-79
2021/07/01 06:06:20;;;;;;;3.97;1.60;;;15.30;96.80;;;;;;5055802;28;20931;-80
2021/07/01 06:08:50;;;;;;;1.37;1.27;;;15.30;96.20;;;;;;5053819;28;20449;-78
2021/07/01 06:11:17;;;;;;;3.70;1.30;;;15.20;96.50;;;;;;5050923;28;20454;-79
2021/07/01 06:13:46;;;;;;;1.50;1.40;;;15.10;98.20;;;;;;5050361;28;20459;-80
2021/07/01 06:16:15;;;;;;;1.53;1.43;;;15.20;97.70;;;;;;5055941;28;20995;-78
2021/07/01 06:18:44;;;;;;;1.83;1.70;;;15.20;95.80;;;;;;5048602;28;20451;-79
2021/07/01 06:21:11;;;;;;;2.20;2.00;;;15.10;96.80;;;;;;5051507;28;20445;-79
2021/07/01 06:23:40;;;;;;;2.43;2.20;;;15.20;96.70;;;;;;5056414;28;20469;-79
2021/07/01 06:26:07;;;;;;;2.80;2.33;;;15.20;94.80;;;;;;5060655;28;20512;-79
2021/07/01 06:28:40;;;;;;;1.77;1.67;;;15.30;95.90;;;;;;5061400;28;20465;-79
2021/07/01 06:31:07;;;;;;;2.40;1.83;;;15.30;96.80;;;;;;5056028;28;20452;-80
2021/07/01 06:33:37;;;;;;;2.63;1.90;;;15.20;95.40;;;;;;5054779;28;20453;-79
2021/07/01 06:36:06;;;;;;;3.90;1.97;;;15.40;95.30;;;;;;5058481;28;20471;-80
2021/07/01 06:38:36;;;;;;;2.43;2.13;;;15.60;95.60;;;;;;5063281;28;20495;-78
2021/07/01 06:41:07;;;;;;;1.97;1.87;;;15.70;92.40;;;;;;5060203;28;20457;-80
2021/07/01 06:43:35;;;;;;;2.27;2.17;;;15.70;92.00;;;;;;5055593;28;21077;-82
2021/07/01 06:46:06;;;;;;;2.63;1.93;;;15.70;92.90;;;;;;5056448;28;20468;-81
2021/07/01 06:48:39;;;;;;;2.40;2.20;;;15.60;92.50;;;;;;5051932;28;21486;-81
2021/07/01 06:51:08;;;;;;;2.73;2.53;;;15.70;93.20;;;;;;5046580;28;20474;-80
2021/07/01 06:53:43;;;;;;;3.40;3.10;;;15.90;91.90;;;;;;5049652;28;20503;-79
2021/07/01 06:56:12;;;;;;;3.67;3.27;;;15.90;91.50;;;;;;5050518;28;20479;-79
2021/07/01 06:58:41;;;;;;;2.93;2.73;;;16.10;90.80;;;;;;5057493;28;20445;-76
2021/07/01 07:01:08;;;;;;;2.70;2.50;;;16.10;90.90;;;;;;5052644;28;20484;-77
2021/07/01 07:03:37;;;;;;;3.03;2.73;;;16.30;90.20;;;;;;5054854;28;20454;-77
2021/07/01 07:06:05;;;;;;;3.03;2.83;;;16.50;90.70;;;;;;5043529;28;20957;-77
2021/07/01 07:08:32;;;;;;;4.07;3.77;;;16.30;88.30;;;;;;5055589;28;20455;-76
2021/07/01 07:11:00;;;;;;;4.03;3.73;;;16.30;90.30;;;;;;5057050;28;20857;-77
2021/07/01 07:13:27;;;;;;;4.93;4.53;;;16.20;90.60;;;;;;5059654;28;20445;-77
2021/07/01 07:15:55;;;;;;;5.10;4.70;;;16.10;90.80;;;;;;5051065;28;20493;-77
2021/07/01 07:18:24;;;;;;;5.10;4.33;;;15.90;90.30;;;;;;5042412;28;20462;-79
2021/07/01 07:20:58;;;;;;;4.10;3.80;;;15.90;91.10;;;;;;5043327;28;20885;-78
2021/07/01 07:23:31;;;;;;;5.90;5.40;;;15.90;89.80;;;;;;5054693;28;20536;-77
2021/07/01 07:25:59;;;;;;;5.17;4.70;;;16.10;90.70;;;;;;5048276;28;20480;-76
2021/07/01 07:28:28;;;;;;;6.40;5.80;;;16.40;90.00;;;;;;5043080;28;20446;-78
2021/07/01 07:30:56;;;;;;;6.00;5.50;;;16.50;87.70;;;;;;5043578;28;20459;-77
2021/07/01 07:33:29;;;;;;;5.57;5.03;;;17.00;85.90;;;;;;5047544;28;20467;-77
2021/07/01 07:35:57;;;;;;;4.90;4.60;;;17.50;84.20;;;;;;5046593;28;20816;-79
2021/07/01 07:38:27;;;;;;;7.63;7.03;;;17.70;80.40;;;;;;5040250;28;20529;-77
2021/07/01 07:40:54;;;;;;;6.30;5.70;;;18.00;81.20;;;;;;5041354;28;20464;-77
2021/07/01 07:43:21;;;;;;;6.57;6.07;;;18.00;80.00;;;;;;5042040;28;20459;-77
2021/07/01 07:45:49;;;;;;;6.70;6.10;;;17.80;80.00;;;;;;5041186;28;20476;-78
2021/07/01 07:48:16;;;;;;;7.17;6.43;;;17.40;80.10;;;;;;5035427;28;20491;-77
2021/07/01 07:50:50;;;;;;;7.70;7.00;;;17.10;81.70;;;;;;5042325;28;20456;-77
2021/07/01 07:53:24;;;;;;;11.30;7.30;;;17.00;81.80;;;;;;5051802;28;20485;-77
2021/07/01 07:55:59;;;;;;;8.03;7.33;;;16.60;82.40;;;;;;5052602;28;20469;-76
2021/07/01 07:58:30;;;;;;;10.93;7.97;;;16.40;83.90;;;;;;5060519;28;21035;-77
2021/07/01 08:01:00;;;;;;;10.10;7.17;;;16.50;84.20;;;;;;5058849;28;20442;-77
2021/07/01 08:03:31;;;;;;;8.77;7.97;;;16.50;83.90;;;;;;5050320;28;20449;-77
2021/07/01 08:06:00;;;;;;;8.20;7.50;;;16.60;85.10;;;;;;5047499;28;20510;-78
2021/07/01 08:08:30;;;;;;;9.57;8.77;;;16.50;84.40;;;;;;5047732;28;20530;-78
2021/07/01 08:10:58;;;;;;;7.90;7.20;;;16.30;85.10;;;;;;5044635;28;20454;-79
2021/07/01 08:13:26;;;;;;;8.70;7.90;;;16.20;86.90;;;;;;5049153;28;21147;-76
2021/07/01 08:15:53;;;;;;;8.57;7.13;;;16.10;87.30;;;;;;5050645;28;20476;-77
2021/07/01 08:18:25;;;;;;;7.10;6.47;;;16.10;88.90;;;;;;5041863;28;20489;-77
2021/07/01 08:20:52;;;;;;;6.77;6.17;;;16.20;87.50;;;;;;5045212;28;20527;-77
2021/07/01 08:23:20;;;;;;;7.20;6.50;;;16.30;86.40;;;;;;5044849;28;20469;-76
2021/07/01 08:25:48;;;;;;;6.23;5.73;;;16.40;87.60;;;;;;5042492;28;20470;-76
2021/07/01 08:28:20;;;;;;;5.80;5.30;;;16.60;88.00;;;;;;5050962;28;20454;-80
2021/07/01 08:30:47;;;;;;;5.67;5.10;;;16.80;85.00;;;;;;5043801;28;20885;-76
2021/07/01 08:33:17;;;;;;;6.00;4.50;;;17.20;81.30;;;;;;5040425;28;20451;-77
2021/07/01 08:35:44;;;;;;;4.40;3.80;;;17.10;81.70;;;;;;5049255;28;20539;-78
2021/07/01 08:38:11;;;;;;;3.87;3.43;;;17.00;80.10;;;;;;5049876;28;20439;-76
2021/07/01 08:40:39;;;;;;;3.03;2.70;;;17.10;80.90;;;;;;5050659;28;20452;-78
2021/07/01 08:43:08;;;;;;;3.60;2.90;;;17.40;78.80;;;;;;5058571;28;20533;-76
2021/07/01 08:45:43;;;;;;;2.90;2.70;;;17.40;80.40;;;;;;5050806;28;20463;-78
2021/07/01 08:48:21;;;;;;;3.30;3.00;;;18.00;78.70;;;;;;5050158;28;20452;-78
2021/07/01 08:50:59;;;;;;;2.93;2.73;;;18.10;76.10;;;;;;5049258;28;20521;-78
2021/07/01 08:53:56;;;;;;;2.40;2.20;;;18.50;74.30;;;;;;5050310;28;20440;-77
2021/07/01 08:56:26;;;;;;;2.40;2.20;;;18.80;73.60;;;;;;5052608;28;20455;-78
2021/07/01 08:58:57;;;;;;;2.40;1.80;;;19.20;70.80;;;;;;5038780;28;20853;-77
2021/07/01 09:01:27;;;;;;;2.40;2.20;;;19.00;70.00;;;;;;5041983;28;20496;-76
2021/07/01 09:03:59;;;;;;;2.60;2.10;;;19.20;69.90;;;;;;5043108;28;20488;-75
2021/07/01 09:06:27;;;;;;;9.27;1.90;;;19.20;69.10;;;;;;5041970;28;20912;-77
2021/07/01 09:08:58;;;;;;;1.90;1.80;;;18.80;70.20;;;;;;5045126;28;20453;-73
2021/07/01 09:11:29;;;;;;;4.10;1.83;;;18.40;71.20;;;;;;5044833;28;20472;-73
2021/07/01 09:14:03;;;;;;;2.33;1.97;;;17.80;74.80;;;;;;5051340;28;20474;-73
2021/07/01 09:16:32;;;;;;;1.90;1.80;;;17.50;77.60;;;;;;5045633;28;20505;-74
2021/07/01 09:19:00;;;;;;;2.30;2.20;;;17.50;78.60;;;;;;5046088;28;20454;-74
2021/07/01 09:21:28;;;;;;;3.33;3.10;;;17.90;79.10;;;;;;5039284;28;20458;-74
2021/07/01 09:23:58;;;;;;;4.80;4.40;;;18.30;76.50;;;;;;5059832;28;20461;-75
2021/07/01 09:26:27;;;;;;;5.30;3.73;;;18.60;75.80;;;;;;5048950;28;20473;-75
2021/07/01 09:28:58;;;;;;;2.53;2.13;;;18.80;74.20;;;;;;5052443;28;20479;-76
2021/07/01 09:31:27;;;;;;;2.47;2.30;;;19.00;71.50;;;;;;5042454;28;20547;-74
2021/07/01 09:33:54;;;;;;;3.53;2.30;;;19.20;72.40;;;;;;5039125;28;20450;-74
2021/07/01 09:36:24;;;;;;;2.50;2.30;;;19.10;71.80;;;;;;5047925;28;20463;-75
2021/07/01 09:38:53;;;;;;;2.40;2.20;;;19.60;70.30;;;;;;5046803;28;20523;-75
2021/07/01 09:41:23;;;;;;;2.70;2.50;;;20.00;71.10;;;;;;5039585;28;20537;-75
2021/07/01 09:43:50;;;;;;;3.70;3.40;;;20.50;68.60;;;;;;5048788;28;20862;-75
2021/07/01 09:46:22;;;;;;;2.60;2.40;;;20.30;67.60;;;;;;5045227;28;20474;-75
2021/07/01 09:48:51;;;;;;;2.77;2.57;;;20.70;66.10;;;;;;5043708;28;20442;-74
2021/07/01 09:51:19;;;;;;;3.27;2.87;;;20.40;67.30;;;;;;5040633;28;21137;-74
2021/07/01 09:53:50;;;;;;;3.73;3.20;;;20.50;66.90;;;;;;5054085;28;20466;-74
2021/07/01 09:56:24;;;;;;;3.27;2.60;;;20.20;66.60;;;;;;5046721;28;20455;-75
2021/07/01 09:58:52;;;;;;;3.07;2.77;;;19.30;66.70;;;;;;5050199;28;20472;-75
2021/07/01 10:01:28;;;;;;;3.13;2.80;;;18.60;67.00;;;;;;5057831;28;20451;-74
2021/07/01 10:03:57;;;;;;;2.50;2.40;;;18.30;67.60;;;;;;5056001;28;20463;-74
2021/07/01 10:06:24;;;;;;;3.30;3.10;;;18.00;69.30;;;;;;5039149;28;20819;-74
2021/07/01 10:08:51;;;;;;;3.53;3.33;;;17.90;69.30;;;;;;5036144;28;20460;-74
2021/07/01 10:11:31;;;;;;;3.90;3.00;;;18.00;70.00;;;;;;5059293;28;20446;-75
2021/07/01 10:13:59;;;;;;;3.17;2.53;;;18.20;69.00;;;;;;5052015;28;20457;-74
2021/07/01 10:16:30;;;;;;;4.97;2.50;;;18.40;69.00;;;;;;5049611;28;20555;-76
2021/07/01 10:18:58;;;;;;;2.80;2.60;;;18.60;68.70;;;;;;5044728;28;20481;-75
2021/07/01 10:21:29;;;;;;;5.90;2.60;;;18.90;68.60;;;;;;5061997;28;20549;-75
2021/07/01 10:24:09;;;;;;;2.80;2.50;;;18.90;67.60;;;;;;5047972;28;20545;-75
2021/07/01 10:26:41;;;;;;;2.07;1.80;;;18.30;68.50;;;;;;5054715;28;20589;-76
2021/07/01 10:29:08;;;;;;;2.00;1.90;;;17.90;69.60;;;;;;5053716;28;20461;-76
2021/07/01 10:31:54;;;;;;;1.80;1.70;;;17.90;71.70;;;;;;5057964;28;20457;-77
2021/07/01 10:34:21;;;;;;;1.70;1.60;;;18.00;70.20;;;;;;5058993;28;20504;-77
2021/07/01 10:36:49;;;;;;;1.47;1.37;;;18.50;69.50;;;;;;5057532;28;20482;-76
2021/07/01 10:39:27;;;;;;;2.17;2.07;;;19.00;68.40;;;;;;5036593;28;20799;-76
2021/07/01 10:42:00;;;;;;;2.20;2.00;;;19.30;67.50;;;;;;5051019;28;20546;-76
2021/07/01 10:44:27;;;;;;;2.90;2.10;;;19.80;66.50;;;;;;5052652;28;20496;-76
2021/07/01 10:46:55;;;;;;;2.30;2.13;;;19.60;66.30;;;;;;5045826;28;20520;-77
2021/07/01 10:49:32;;;;;;;2.10;2.00;;;19.30;66.50;;;;;;5052332;28;20442;-76
2021/07/01 10:52:01;;;;;;;2.60;2.40;;;19.10;66.90;;;;;;5053329;28;21184;-77
2021/07/01 10:54:28;;;;;;;2.93;2.73;;;18.70;67.70;;;;;;5055052;28;20485;-77
2021/07/01 10:57:03;;;;;;;3.33;3.03;;;18.30;69.40;;;;;;5062872;28;20538;-78
2021/07/01 10:59:47;;;;;;;2.37;2.17;;;17.90;72.20;;;;;;5060616;28;20545;-77
2021/07/01 11:02:21;;;;;;;2.73;2.50;;;17.10;75.30;;;;;;5055100;28;20526;-77
2021/07/01 11:04:49;;;;;;;3.33;3.13;;;16.80;79.90;;;;;;5052967;28;20768;-79
2021/07/01 11:07:19;;;;;;;3.40;3.07;;;16.60;81.60;;;;;;5061016;28;20467;-79
2021/07/01 11:09:48;;;;;;;3.53;3.20;;;16.60;82.20;;;;;;5052027;28;20466;-78
2021/07/01 11:12:17;;;;;;;3.43;3.17;;;16.60;83.30;;;;;;5048225;28;20445;-78
2021/07/01 11:14:47;;;;;;;2.43;2.23;;;16.80;86.40;;;;;;5042799;28;20470;-77
2021/07/01 11:17:16;;;;;;;2.10;2.00;;;17.30;81.20;;;;;;5043362;28;20485;-77
2021/07/01 11:19:45;;;;;;;2.50;2.30;;;17.80;75.40;;;;;;5041069;28;20896;-79
2021/07/01 11:22:13;;;;;;;2.07;1.93;;;18.10;75.50;;;;;;5051540;28;20446;-78
2021/07/01 11:24:42;;;;;;;2.43;2.23;;;18.50;74.80;;;;;;5051134;28;20504;-79
2021/07/01 11:27:09;;;;;;;2.00;1.90;;;18.70;72.10;;;;;;5050130;28;20522;-77
2021/07/01 11:29:38;;;;;;;2.03;1.93;;;19.20;71.30;;;;;;5050198;28;20473;-80
2021/07/01 11:32:17;;;;;;;2.30;2.10;;;19.40;70.10;;;;;;5049548;28;20465;-79
2021/07/01 11:34:48;;;;;;;1.93;1.83;;;19.60;69.40;;;;;;5051664;28;20552;-79
2021/07/01 11:37:16;;;;;;;1.77;1.67;;;20.30;68.20;;;;;;5054809;28;20840;-79
2021/07/01 11:39:44;;;;;;;1.80;1.70;;;20.30;67.30;;;;;;5067586;28;20450;-78
2021/07/01 11:42:13;;;;;;;1.70;1.60;;;20.30;67.90;;;;;;5053811;28;20450;-79
2021/07/01 11:44:40;;;;;;;2.50;2.30;;;20.50;66.90;;;;;;5056310;28;20482;-80
2021/07/01 11:47:09;;;;;;;4.40;4.03;;;20.40;66.70;;;;;;5052624;28;20552;-80
2021/07/01 11:49:36;;;;;;;12.10;7.50;;;20.00;66.70;;;;;;5057010;28;20486;-79
2021/07/01 11:52:05;;;;;;;6.83;3.53;;;19.60;67.40;;;;;;5053767;28;20527;-78
2021/07/01 11:54:33;;;;;;;2.80;2.40;;;19.00;67.80;;;;;;5056459;28;20448;-78
2021/07/01 11:57:00;;;;;;;2.40;2.20;;;18.50;68.50;;;;;;5049498;28;20787;-78
2021/07/01 11:59:28;;;;;;;2.60;2.40;;;18.00;68.90;;;;;;5044955;28;20458;-77
2021/07/01 12:01:56;;;;;;;3.77;3.47;;;17.30;69.40;;;;;;5041556;28;20464;-78
2021/07/01 12:04:31;;;;;;;3.47;2.60;;;16.80;75.70;;;;;;5043864;28;20905;-78
2021/07/01 12:07:08;;;;;;;3.50;2.90;;;16.20;78.30;;;;;;5049189;28;20833;-77
2021/07/01 12:09:39;;;;;;;3.43;2.77;;;15.70;82.30;;;;;;5053980;28;20523;-78
2021/07/01 12:12:20;;;;;;;3.07;2.77;;;15.50;84.90;;;;;;5050441;28;20511;-77
2021/07/01 12:14:48;;;;;;;3.50;2.77;;;15.30;87.30;;;;;;5046548;28;20484;-76
2021/07/01 12:17:49;;;;;;;2.30;2.10;;;15.30;87.30;;;;;;5042658;28;20481;-76
2021/07/01 12:20:35;;;;;;;2.20;2.03;;;15.20;87.20;;;;;;5043265;28;20449;-80
2021/07/01 12:23:05;;;;;;;2.97;2.77;;;15.10;87.60;;;;;;5042953;28;20445;-77
2021/07/01 12:25:51;;;;;;;3.20;2.93;;;15.10;87.90;;;;;;5047565;28;20493;-75
2021/07/01 12:28:22;;;;;;;3.23;2.93;;;15.20;89.10;;;;;;5049505;28;20478;-78
2021/07/01 12:30:55;;;;;;;2.80;2.60;;;15.30;89.80;;;;;;5045660;28;20545;-76
2021/07/01 12:33:37;;;;;;;3.40;3.10;;;15.40;87.70;;;;;;5052698;28;20971;-76
2021/07/01 12:36:08;;;;;;;3.53;3.17;;;15.40;86.90;;;;;;5039879;28;20467;-78
2021/07/01 12:38:39;;;;;;;3.20;3.00;;;15.40;86.00;;;;;;5040316;28;20474;-77
2021/07/01 12:41:08;;;;;;;3.23;3.03;;;15.50;87.30;;;;;;5051003;28;20439;-77
2021/07/01 12:43:54;;;;;;;3.73;3.33;;;15.50;85.70;;;;;;5055214;28;20449;-78
2021/07/01 12:47:08;;;;;;;3.57;3.23;;;15.40;84.10;;;;;;5058140;28;20478;-76
2021/07/01 12:49:58;;;;;;;5.87;3.50;;;15.50;83.40;;;;;;5053860;28;20461;-75
2021/07/01 12:52:44;;;;;;;3.47;3.20;;;15.60;82.00;;;;;;5046952;28;20510;-77
2021/07/01 12:55:27;;;;;;;7.50;3.50;;;15.80;81.50;;;;;;5039014;28;20456;-79
2021/07/01 12:57:55;;;;;;;3.60;3.30;;;16.00;82.00;;;;;;5037051;28;20449;-80